Time;durP1;ratioP1;P1;durP2;ratioP2;P2;SDS_P1;SDS_P2;PMS_P1;PMS_P2;Temp;Humidity;BMP_temperature;BMP_pressure;BME280_temperature;BME280_humidity;BME280_pressure;Samples;Min_cycle;Max_cycle;Signal;HPM_P1;HPM_P2
2021/05/12 00:01:24;;;;;;;5.28;2.63;;;;;;;;;;5036390;28;20076;-79
2021/05/12 00:03:49;;;;;;;5.40;1.60;;;;;;;;;;5032629;28;20415;-79
2021/05/12 00:06:15;;;;;;;4.82;1.50;;;;;;;;;;5033501;28;20445;-79
2021/05/12 00:08:40;;;;;;;4.18;1.58;;;;;;;;;;5049521;28;20056;-78
2021/05/12 00:11:06;;;;;;;4.95;2.22;;;;;;;;;;5033549;28;20119;-77
2021/05/12 00:13:31;;;;;;;4.03;1.77;;;;;;;;;;5032715;28;20049;-78
2021/05/12 00:15:57;;;;;;;3.33;1.52;;;;;;;;;;4999659;28;20427;-77
2021/05/12 00:18:24;;;;;;;4.70;2.33;;;;;;;;;;5018054;28;20495;-78
2021/05/12 00:20:50;;;;;;;4.43;1.65;;;;;;;;;;5004433;28;20477;-78
2021/05/12 00:23:23;;;;;;;6.32;1.88;;;;;;;;;;5023505;28;20043;-78
2021/05/12 00:25:48;;;;;;;3.88;1.48;;;;;;;;;;5057148;28;20043;-77
2021/05/12 00:28:14;;;;;;;4.72;1.63;;;;;;;;;;5035156;28;20072;-78
2021/05/12 00:30:39;;;;;;;4.30;1.45;;;;;;;;;;5053838;28;20067;-78
2021/05/12 00:33:05;;;;;;;4.05;1.85;;;;;;;;;;5055393;28;20055;-78
2021/05/12 00:35:30;;;;;;;4.35;1.60;;;;;;;;;;5023402;28;20384;-78
2021/05/12 00:37:56;;;;;;;4.85;1.40;;;;;;;;;;5039595;28;20036;-78
2021/05/12 00:40:21;;;;;;;3.00;1.70;;;;;;;;;;5022116;28;20085;-77
2021/05/12 00:42:47;;;;;;;3.47;1.65;;;;;;;;;;5019897;28;20044;-78
2021/05/12 00:45:14;;;;;;;4.35;1.60;;;;;;;;;;5035919;28;20517;-77
2021/05/12 00:47:40;;;;;;;4.85;1.55;;;;;;;;;;5003720;28;20111;-78
2021/05/12 00:50:06;;;;;;;4.95;1.70;;;;;;;;;;5036514;28;20041;-77
2021/05/12 00:52:31;;;;;;;4.82;2.47;;;;;;;;;;5036048;28;20206;-77
2021/05/12 00:54:57;;;;;;;7.22;1.77;;;;;;;;;;5023206;28;20037;-77
2021/05/12 00:57:22;;;;;;;4.70;1.73;;;;;;;;;;5019639;28;20075;-78
2021/05/12 00:59:50;;;;;;;5.38;2.00;;;;;;;;;;5019508;28;20029;-77
2021/05/12 01:02:15;;;;;;;5.45;1.90;;;;;;;;;;5037028;28;20067;-77
2021/05/12 01:04:41;;;;;;;4.50;1.88;;;;;;;;;;5034944;28;20041;-77
2021/05/12 01:07:07;;;;;;;3.83;1.85;;;;;;;;;;5035013;28;20037;-78
2021/05/12 01:09:32;;;;;;;5.30;1.70;;;;;;;;;;5049229;28;20064;-78
2021/05/12 01:11:58;;;;;;;6.70;1.80;;;;;;;;;;5035867;28;20430;-77
2021/05/12 01:14:24;;;;;;;4.13;1.48;;;;;;;;;;5052108;28;20713;-78
2021/05/12 01:16:50;;;;;;;4.32;1.50;;;;;;;;;;5035761;28;20033;-77
2021/05/12 01:19:15;;;;;;;3.92;1.50;;;;;;;;;;5054420;28;20043;-77
2021/05/12 01:21:41;;;;;;;4.05;1.60;;;;;;;;;;5018407;28;20031;-78
2021/05/12 01:24:09;;;;;;;4.40;1.50;;;;;;;;;;5035478;28;20470;-78
2021/05/12 01:26:34;;;;;;;6.20;2.03;;;;;;;;;;5034667;28;20040;-78
2021/05/12 01:29:00;;;;;;;4.30;1.27;;;;;;;;;;5034222;28;20037;-78
2021/05/12 01:31:55;;;;;;;3.70;1.85;;;;;;;;;;5051531;28;20033;-78
2021/05/12 01:34:20;;;;;;;4.00;1.42;;;;;;;;;;5055664;28;20052;-77
2021/05/12 01:36:46;;;;;;;4.07;1.15;;;;;;;;;;5038619;28;20103;-77
2021/05/12 01:39:12;;;;;;;3.10;1.23;;;;;;;;;;5022273;28;20043;-78
2021/05/12 01:41:37;;;;;;;3.88;1.30;;;;;;;;;;5038498;28;20036;-77
2021/05/12 01:44:05;;;;;;;3.95;1.20;;;;;;;;;;5051893;28;20037;-77
2021/05/12 01:46:31;;;;;;;3.10;1.05;;;;;;;;;;5019166;28;20494;-78
2021/05/12 01:48:56;;;;;;;3.40;1.33;;;;;;;;;;5018824;28;20033;-78
2021/05/12 01:51:22;;;;;;;2.80;0.85;;;;;;;;;;5019004;28;20051;-77
2021/05/12 01:53:47;;;;;;;2.25;1.10;;;;;;;;;;5034842;28;20071;-78
2021/05/12 01:56:12;;;;;;;3.65;0.95;;;;;;;;;;5034942;28;20060;-77
2021/05/12 01:58:38;;;;;;;2.80;0.90;;;;;;;;;;5018334;28;20158;-78
2021/05/12 02:01:04;;;;;;;3.95;1.25;;;;;;;;;;5002124;28;20037;-78
2021/05/12 02:03:33;;;;;;;4.20;1.40;;;;;;;;;;5048306;28;20410;-77
2021/05/12 02:05:59;;;;;;;3.80;1.25;;;;;;;;;;5034850;28;20551;-78
2021/05/12 02:08:26;;;;;;;4.00;1.10;;;;;;;;;;5051669;28;20108;-77
2021/05/12 02:10:56;;;;;;;2.03;0.90;;;;;;;;;;5018674;28;20112;-78
2021/05/12 02:13:24;;;;;;;3.47;1.20;;;;;;;;;;5027987;28;20415;-76
2021/05/12 02:15:50;;;;;;;2.92;0.93;;;;;;;;;;5033246;28;20033;-80
2021/05/12 02:18:15;;;;;;;2.80;1.20;;;;;;;;;;5032458;28;20041;-80
2021/05/12 02:20:41;;;;;;;3.13;1.08;;;;;;;;;;5017011;28;20029;-77
2021/05/12 02:23:08;;;;;;;4.65;1.08;;;;;;;;;;5033036;28;20036;-77
2021/05/12 02:25:34;;;;;;;4.45;1.10;;;;;;;;;;5034597;28;20090;-78
2021/05/12 02:27:59;;;;;;;3.33;1.00;;;;;;;;;;5034466;28;20033;-77
2021/05/12 02:30:26;;;;;;;4.75;1.05;;;;;;;;;;5034235;28;20025;-78
2021/05/12 02:32:56;;;;;;;3.63;1.35;;;;;;;;;;5034683;28;20410;-78
2021/05/12 02:35:22;;;;;;;3.22;1.60;;;;;;;;;;5018924;28;20037;-77
2021/05/12 02:37:47;;;;;;;3.60;1.02;;;;;;;;;;5017979;28;20037;-78
2021/05/12 02:40:14;;;;;;;3.08;0.90;;;;;;;;;;5004096;28;20033;-78
2021/05/12 02:42:40;;;;;;;2.95;0.73;;;;;;;;;;5050433;28;20064;-78
2021/05/12 02:45:06;;;;;;;4.07;1.17;;;;;;;;;;5033680;28;20051;-77
2021/05/12 02:47:33;;;;;;;2.72;0.90;;;;;;;;;;5008324;28;20045;-78
2021/05/12 02:49:59;;;;;;;3.88;1.00;;;;;;;;;;5033897;28;20036;-78
2021/05/12 02:52:25;;;;;;;3.13;0.95;;;;;;;;;;5034208;28;20037;-77
2021/05/12 02:54:51;;;;;;;2.35;0.95;;;;;;;;;;5018215;28;20067;-78
2021/05/12 02:57:16;;;;;;;2.83;0.80;;;;;;;;;;5033571;28;20129;-77
2021/05/12 02:59:42;;;;;;;3.33;0.90;;;;;;;;;;5017518;28;20041;-78
2021/05/12 03:02:07;;;;;;;3.45;1.00;;;;;;;;;;5031806;28;20410;-77
2021/05/12 03:04:33;;;;;;;5.50;0.90;;;;;;;;;;5033841;28;20036;-77
2021/05/12 03:06:58;;;;;;;4.80;1.05;;;;;;;;;;5017702;28;20041;-77
2021/05/12 03:09:24;;;;;;;3.78;1.10;;;;;;;;;;5001254;28;20434;-77
2021/05/12 03:11:49;;;;;;;3.30;0.90;;;;;;;;;;5017588;28;20033;-77
2021/05/12 03:14:15;;;;;;;2.30;0.93;;;;;;;;;;5035764;28;20037;-78
2021/05/12 03:16:41;;;;;;;2.85;0.90;;;;;;;;;;5020046;28;20085;-77
2021/05/12 03:19:06;;;;;;;3.03;0.90;;;;;;;;;;5053960;28;20083;-78
2021/05/12 03:21:33;;;;;;;2.00;0.95;;;;;;;;;;5033391;28;20061;-78
2021/05/12 03:23:59;;;;;;;6.22;2.08;;;;;;;;;;5050460;28;20101;-77
2021/05/12 03:26:25;;;;;;;3.90;1.02;;;;;;;;;;5033835;28;20090;-78
2021/05/12 03:28:50;;;;;;;2.75;1.13;;;;;;;;;;5016922;28;20036;-78
2021/05/12 03:31:15;;;;;;;3.42;1.00;;;;;;;;;;5016997;28;20494;-78
2021/05/12 03:33:41;;;;;;;1.95;0.73;;;;;;;;;;5033286;28;20033;-77
2021/05/12 03:36:07;;;;;;;2.40;0.70;;;;;;;;;;5033821;28;20048;-77
2021/05/12 03:38:33;;;;;;;2.85;0.60;;;;;;;;;;5017704;28;20049;-77
2021/05/12 03:40:58;;;;;;;3.60;0.73;;;;;;;;;;5017038;28;20090;-78
2021/05/12 03:43:24;;;;;;;3.45;1.30;;;;;;;;;;5049677;28;20083;-77
2021/05/12 03:45:49;;;;;;;5.15;1.35;;;;;;;;;;5000242;28;20052;-78
2021/05/12 03:48:14;;;;;;;3.47;0.88;;;;;;;;;;5033369;28;20037;-78
2021/05/12 03:50:40;;;;;;;2.40;0.98;;;;;;;;;;5017012;28;20063;-78
2021/05/12 03:53:06;;;;;;;4.03;1.33;;;;;;;;;;5018208;28;20037;-78
2021/05/12 03:55:31;;;;;;;2.90;1.13;;;;;;;;;;5037283;28;20075;-77
2021/05/12 03:57:57;;;;;;;3.10;1.13;;;;;;;;;;5020938;28;20036;-78
2021/05/12 04:00:22;;;;;;;3.63;1.00;;;;;;;;;;5020151;28;20564;-78
2021/05/12 04:02:48;;;;;;;1.55;0.65;;;;;;;;;;5056910;28;20107;-77
2021/05/12 04:05:14;;;;;;;2.08;1.02;;;;;;;;;;5056976;28;20110;-77
2021/05/12 04:07:39;;;;;;;4.10;1.30;;;;;;;;;;5040508;28;20402;-77
2021/05/12 04:10:05;;;;;;;2.92;1.30;;;;;;;;;;5023407;28;20033;-78
2021/05/12 04:12:31;;;;;;;3.78;0.82;;;;;;;;;;5040318;28;20108;-77
2021/05/12 04:14:56;;;;;;;2.65;0.70;;;;;;;;;;5056345;28;20915;-77
2021/05/12 04:17:21;;;;;;;4.18;1.17;;;;;;;;;;5038591;28;20037;-78
2021/05/12 04:19:47;;;;;;;2.85;0.88;;;;;;;;;;5056784;28;20051;-78
2021/05/12 04:22:13;;;;;;;3.33;1.10;;;;;;;;;;5051498;28;20446;-78
2021/05/12 04:24:39;;;;;;;3.25;0.88;;;;;;;;;;5036217;28;20518;-77
2021/05/12 04:27:04;;;;;;;2.70;0.90;;;;;;;;;;5020204;28;20033;-77
2021/05/12 04:29:30;;;;;;;2.47;0.80;;;;;;;;;;5003739;28;20041;-77
2021/05/12 04:31:57;;;;;;;2.78;0.80;;;;;;;;;;5031657;28;20045;-78
2021/05/12 04:34:22;;;;;;;4.00;1.00;;;;;;;;;;5003540;28;20130;-79
2021/05/12 04:36:48;;;;;;;1.90;0.70;;;;;;;;;;5022578;28;20064;-78
2021/05/12 04:39:13;;;;;;;3.38;1.23;;;;;;;;;;5039921;28;20438;-78
2021/05/12 04:41:39;;;;;;;4.97;1.13;;;;;;;;;;5039646;28;20037;-77
2021/05/12 04:44:05;;;;;;;2.20;0.80;;;;;;;;;;5035514;28;20098;-79
2021/05/12 04:46:31;;;;;;;3.78;1.23;;;;;;;;;;5036251;28;20112;-79
2021/05/12 04:48:57;;;;;;;2.95;1.10;;;;;;;;;;5020147;28;20609;-79
2021/05/12 04:51:29;;;;;;;2.42;0.75;;;;;;;;;;5036369;28;20470;-79
2021/05/12 04:53:55;;;;;;;3.13;0.93;;;;;;;;;;5037173;28;20033;-79
2021/05/12 04:56:20;;;;;;;3.10;0.73;;;;;;;;;;5054014;28;20035;-79
2021/05/12 04:58:46;;;;;;;2.28;0.60;;;;;;;;;;5039177;28;20044;-79
2021/05/12 05:01:13;;;;;;;3.25;1.13;;;;;;;;;;5051386;28;20407;-78
2021/05/12 05:03:42;;;;;;;3.78;1.42;;;;;;;;;;5052315;28;20029;-78
2021/05/12 05:06:07;;;;;;;4.28;0.95;;;;;;;;;;5055027;28;20407;-78
2021/05/12 05:08:33;;;;;;;2.85;0.70;;;;;;;;;;5056106;28;20048;-79
2021/05/12 05:10:58;;;;;;;2.72;0.70;;;;;;;;;;5022600;28;20410;-79
2021/05/12 05:13:24;;;;;;;2.50;0.63;;;;;;;;;;5022073;28;20398;-79
2021/05/12 05:15:49;;;;;;;2.20;0.82;;;;;;;;;;5055437;28;20402;-79
2021/05/12 05:18:15;;;;;;;2.42;0.70;;;;;;;;;;5039809;28;20380;-79
2021/05/12 05:20:40;;;;;;;2.35;0.63;;;;;;;;;;5055743;28;20077;-78
2021/05/12 05:23:06;;;;;;;4.22;0.80;;;;;;;;;;5043001;28;20372;-79
2021/05/12 05:25:32;;;;;;;3.30;1.08;;;;;;;;;;5022206;28;20090;-79
2021/05/12 05:27:57;;;;;;;3.50;0.80;;;;;;;;;;5054819;28;20064;-79
2021/05/12 05:30:23;;;;;;;2.30;0.80;;;;;;;;;;5018638;28;20044;-78
2021/05/12 05:32:48;;;;;;;3.58;0.88;;;;;;;;;;5034430;28;20484;-79
2021/05/12 05:35:14;;;;;;;2.78;0.88;;;;;;;;;;5051319;28;20028;-78
2021/05/12 05:37:39;;;;;;;3.47;0.90;;;;;;;;;;5036546;28;20415;-78
2021/05/12 05:40:06;;;;;;;2.78;0.60;;;;;;;;;;5039172;28;20530;-77
2021/05/12 05:42:32;;;;;;;3.00;0.82;;;;;;;;;;5048945;28;20499;-76
2021/05/12 05:44:57;;;;;;;2.65;1.02;;;;;;;;;;5018193;28;20095;-76
2021/05/12 05:47:23;;;;;;;2.63;0.80;;;;;;;;;;5035324;28;20408;-77
2021/05/12 05:49:48;;;;;;;2.85;0.70;;;;;;;;;;5018524;28;20407;-77
2021/05/12 05:52:14;;;;;;;2.30;0.75;;;;;;;;;;5037434;28;20427;-77
2021/05/12 05:54:39;;;;;;;2.22;0.82;;;;;;;;;;5035176;28;20039;-77
2021/05/12 05:57:05;;;;;;;3.65;1.00;;;;;;;;;;5040634;28;20036;-77
2021/05/12 05:59:32;;;;;;;5.95;2.38;;;;;;;;;;5038261;28;20036;-77
2021/05/12 06:01:57;;;;;;;3.53;1.42;;;;;;;;;;5011373;28;20063;-77
2021/05/12 06:04:24;;;;;;;5.32;1.55;;;;;;;;;;5034945;28;20036;-77
2021/05/12 06:06:51;;;;;;;2.55;1.10;;;;;;;;;;5040549;28;20036;-77
2021/05/12 06:09:17;;;;;;;3.38;1.63;;;;;;;;;;5034490;28;20045;-77
2021/05/12 06:11:42;;;;;;;4.75;1.30;;;;;;;;;;5053252;28;20056;-77
2021/05/12 06:14:10;;;;;;;6.82;1.52;;;;;;;;;;5034093;28;20036;-77
2021/05/12 06:16:35;;;;;;;3.67;1.45;;;;;;;;;;5018005;28;20044;-77
2021/05/12 06:19:01;;;;;;;3.88;1.50;;;;;;;;;;5033878;28;20541;-77
2021/05/12 06:21:26;;;;;;;4.80;1.40;;;;;;;;;;5054078;28;20403;-77
2021/05/12 06:23:52;;;;;;;4.55;1.38;;;;;;;;;;5033462;28;20067;-77
2021/05/12 06:26:19;;;;;;;4.35;1.83;;;;;;;;;;5012170;28;20040;-77
2021/05/12 06:28:45;;;;;;;5.80;1.90;;;;;;;;;;5026999;28;20040;-77
2021/05/12 06:31:11;;;;;;;4.93;1.90;;;;;;;;;;5034131;28;20565;-77
2021/05/12 06:33:38;;;;;;;3.53;1.88;;;;;;;;;;5036188;28;20041;-77
2021/05/12 06:36:05;;;;;;;8.25;2.50;;;;;;;;;;5036682;28;20037;-77
2021/05/12 06:38:30;;;;;;;5.80;2.03;;;;;;;;;;5025629;28;20148;-77
2021/05/12 06:40:56;;;;;;;7.03;2.38;;;;;;;;;;5035021;28;20045;-77
2021/05/12 06:43:21;;;;;;;7.00;2.33;;;;;;;;;;5049272;28;20443;-77
2021/05/12 06:45:47;;;;;;;5.43;2.17;;;;;;;;;;5035739;28;20410;-77
2021/05/12 06:48:12;;;;;;;6.28;2.40;;;;;;;;;;5052472;28;20418;-76
2021/05/12 06:50:38;;;;;;;5.90;2.08;;;;;;;;;;5045304;28;20070;-77
2021/05/12 06:53:03;;;;;;;5.53;1.77;;;;;;;;;;5034640;28;20097;-77
2021/05/12 06:55:29;;;;;;;5.72;1.63;;;;;;;;;;5020643;28;20052;-77
2021/05/12 06:57:55;;;;;;;4.95;1.50;;;;;;;;;;5037073;28;20043;-77
2021/05/12 07:00:21;;;;;;;6.22;2.35;;;;;;;;;;5053713;28;20410;-77
2021/05/12 07:02:46;;;;;;;6.88;2.38;;;;;;;;;;5033665;28;20033;-77
2021/05/12 07:05:15;;;;;;;5.25;2.10;;;;;;;;;;5034041;28;20486;-78
2021/05/12 07:07:44;;;;;;;6.07;2.22;;;;;;;;;;5018066;28;20037;-77
2021/05/12 07:10:10;;;;;;;8.35;2.13;;;;;;;;;;5019217;28;20558;-77
2021/05/12 07:12:35;;;;;;;4.47;2.22;;;;;;;;;;5050193;28;20402;-77
2021/05/12 07:15:02;;;;;;;7.05;1.73;;;;;;;;;;5049827;28;20045;-77
2021/05/12 07:17:29;;;;;;;7.38;1.80;;;;;;;;;;5050221;28;20065;-77
2021/05/12 07:19:54;;;;;;;9.15;1.58;;;;;;;;;;5050471;28;20063;-77
2021/05/12 07:22:20;;;;;;;6.25;1.35;;;;;;;;;;5049970;28;20496;-77
2021/05/12 07:24:45;;;;;;;6.78;1.50;;;;;;;;;;5018325;28;20083;-77
2021/05/12 07:27:11;;;;;;;5.72;1.35;;;;;;;;;;5034106;28;20112;-77
2021/05/12 07:29:37;;;;;;;6.22;1.55;;;;;;;;;;5032401;28;20037;-77
2021/05/12 07:32:02;;;;;;;4.53;1.70;;;;;;;;;;5054438;28;20522;-77
2021/05/12 07:34:28;;;;;;;8.93;1.88;;;;;;;;;;5040122;28;20041;-76
2021/05/12 07:36:53;;;;;;;5.72;1.65;;;;;;;;;;5057179;28;20498;-77
2021/05/12 07:39:19;;;;;;;4.72;1.50;;;;;;;;;;5054175;28;20048;-78
2021/05/12 07:41:45;;;;;;;5.75;1.33;;;;;;;;;;5037230;28;20037;-78
2021/05/12 07:44:10;;;;;;;5.63;0.98;;;;;;;;;;5020328;28;20577;-78
2021/05/12 07:46:36;;;;;;;5.25;1.60;;;;;;;;;;5021373;28;20113;-78
2021/05/12 07:49:01;;;;;;;4.63;1.10;;;;;;;;;;5037560;28;20037;-78
2021/05/12 07:51:27;;;;;;;4.68;1.38;;;;;;;;;;5020556;28;20044;-78
2021/05/12 07:53:53;;;;;;;6.20;1.90;;;;;;;;;;5023272;28;20136;-77
2021/05/12 07:56:19;;;;;;;3.42;1.15;;;;;;;;;;5037003;28;20120;-79
2021/05/12 07:58:44;;;;;;;2.78;1.02;;;;;;;;;;5052812;28;20162;-82
2021/05/12 08:01:19;;;;;;;4.53;1.58;;;;;;;;;;5036181;28;20442;-83
2021/05/12 08:03:44;;;;;;;3.20;1.13;;;;;;;;;;5019138;28;20047;-82
2021/05/12 08:06:10;;;;;;;5.32;1.45;;;;;;;;;;5023085;28;20029;-82
2021/05/12 08:08:37;;;;;;;4.00;1.15;;;;;;;;;;5034981;28;20060;-81
2021/05/12 08:11:03;;;;;;;6.18;1.23;;;;;;;;;;5024251;28;20043;-82
2021/05/12 08:13:28;;;;;;;9.73;2.13;;;;;;;;;;5040317;28;20037;-82
2021/05/12 08:15:54;;;;;;;8.60;1.85;;;;;;;;;;5040079;28;20490;-81
2021/05/12 08:18:19;;;;;;;6.13;1.38;;;;;;;;;;5056767;28;20045;-82
2021/05/12 08:20:44;;;;;;;4.80;0.90;;;;;;;;;;5056652;28;20125;-81
2021/05/12 08:23:10;;;;;;;2.63;0.90;;;;;;;;;;5036608;28;20392;-81
2021/05/12 08:25:41;;;;;;;5.05;1.33;;;;;;;;;;5036429;28;20410;-81
2021/05/12 08:28:07;;;;;;;6.03;0.98;;;;;;;;;;5005482;28;20036;-82
2021/05/12 08:30:35;;;;;;;5.18;1.20;;;;;;;;;;5036804;28;20124;-82
2021/05/12 08:33:02;;;;;;;5.18;1.10;;;;;;;;;;5037361;28;20102;-82
2021/05/12 08:35:28;;;;;;;3.35;0.90;;;;;;;;;;5003672;28;20048;-81
2021/05/12 08:37:53;;;;;;;4.25;0.95;;;;;;;;;;5003559;28;20418;-82
2021/05/12 08:40:22;;;;;;;4.28;1.55;;;;;;;;;;5019129;28;20099;-82
2021/05/12 08:42:49;;;;;;;5.50;0.85;;;;;;;;;;5019969;28;20032;-82
2021/05/12 08:45:15;;;;;;;3.70;0.90;;;;;;;;;;5019699;28;20041;-81
2021/05/12 08:47:45;;;;;;;2.97;1.35;;;;;;;;;;5003568;28;20033;-82
2021/05/12 08:50:19;;;;;;;4.28;1.20;;;;;;;;;;5027096;28;20115;-82
2021/05/12 08:52:44;;;;;;;3.50;1.27;;;;;;;;;;5019593;28;20398;-82
2021/05/12 08:55:10;;;;;;;2.97;0.77;;;;;;;;;;5020172;28;20068;-82
2021/05/12 08:57:35;;;;;;;3.47;1.13;;;;;;;;;;5019830;28;20398;-81
2021/05/12 09:00:01;;;;;;;4.28;0.90;;;;;;;;;;5019593;28;20182;-82
2021/05/12 09:02:26;;;;;;;3.90;1.20;;;;;;;;;;5026304;28;20450;-82
2021/05/12 09:04:52;;;;;;;4.45;1.13;;;;;;;;;;5039320;28;20048;-82
2021/05/12 09:07:17;;;;;;;3.35;0.70;;;;;;;;;;5022786;28;20406;-82
2021/05/12 09:09:43;;;;;;;3.08;0.80;;;;;;;;;;5055988;28;20086;-81
2021/05/12 09:12:12;;;;;;;4.13;0.88;;;;;;;;;;5022475;28;20032;-82
2021/05/12 09:14:39;;;;;;;2.70;0.70;;;;;;;;;;5023070;28;20051;-82
2021/05/12 09:17:05;;;;;;;3.70;0.95;;;;;;;;;;5023306;28;20032;-82
2021/05/12 09:19:30;;;;;;;3.13;0.98;;;;;;;;;;5022716;28;20036;-82
2021/05/12 09:21:57;;;;;;;3.35;0.80;;;;;;;;;;5019260;28;20106;-82
2021/05/12 09:24:40;;;;;;;2.92;0.60;;;;;;;;;;5034025;28;20053;-81
2021/05/12 09:27:10;;;;;;;3.60;1.13;;;;;;;;;;5022746;28;20033;-82
2021/05/12 09:29:41;;;;;;;2.20;0.60;;;;;;;;;;5039284;28;20037;-82
2021/05/12 09:32:16;;;;;;;3.75;1.00;;;;;;;;;;5022376;28;20074;-81
2021/05/12 09:35:04;;;;;;;2.13;0.52;;;;;;;;;;5022430;28;20384;-81
2021/05/12 09:37:31;;;;;;;2.72;0.60;;;;;;;;;;5039551;28;20035;-82
2021/05/12 09:39:57;;;;;;;4.43;0.60;;;;;;;;;;5022299;28;20502;-82
2021/05/12 09:42:23;;;;;;;4.88;0.60;;;;;;;;;;5022069;28;20134;-83
2021/05/12 09:45:13;;;;;;;2.30;0.77;;;;;;;;;;5021434;28;20036;-83
2021/05/12 09:47:39;;;;;;;3.70;0.80;;;;;;;;;;5038792;28;20403;-82
2021/05/12 09:50:25;;;;;;;5.32;1.05;;;;;;;;;;5019529;28;20036;-82
2021/05/12 09:52:57;;;;;;;2.67;0.65;;;;;;;;;;5052525;28;20039;-82
2021/05/12 09:55:38;;;;;;;3.92;0.90;;;;;;;;;;5052953;28;20526;-81
2021/05/12 09:58:10;;;;;;;5.80;1.00;;;;;;;;;;5038158;28;20058;-82
2021/05/12 10:00:37;;;;;;;4.18;1.20;;;;;;;;;;5021055;28;20384;-82
2021/05/12 10:03:06;;;;;;;4.22;0.98;;;;;;;;;;5036806;28;20040;-81
2021/05/12 10:05:57;;;;;;;4.57;1.02;;;;;;;;;;5034572;28;20078;-82
2021/05/12 10:08:34;;;;;;;4.45;1.38;;;;;;;;;;5019173;28;20078;-81
2021/05/12 10:11:07;;;;;;;4.75;0.70;;;;;;;;;;5037662;28;20085;-82
2021/05/12 10:13:33;;;;;;;;;;;;;;;;;;5037976;28;20577;-82
2021/05/12 10:15:59;;;;;;;1.52;0.47;;;;;;;;;;5037139;28;19927;-82
2021/05/12 10:18:24;;;;;;;2.60;0.85;;;;;;;;;;5021730;28;20033;-82
2021/05/12 10:20:53;;;;;;;3.83;1.13;;;;;;;;;;5054234;28;20086;-82
2021/05/12 10:23:18;;;;;;;4.18;0.68;;;;;;;;;;5034963;28;20064;-82
2021/05/12 10:25:43;;;;;;;4.30;0.77;;;;;;;;;;5034032;28;20498;-82
2021/05/12 10:28:09;;;;;;;2.20;0.40;;;;;;;;;;5033939;28;20045;-81
2021/05/12 10:30:35;;;;;;;3.85;0.70;;;;;;;;;;5034091;28;20159;-81
2021/05/12 10:33:00;;;;;;;4.72;0.75;;;;;;;;;;5001614;28;20116;-81
2021/05/12 10:35:33;;;;;;;2.92;0.63;;;;;;;;;;5032421;28;20111;-81
2021/05/12 10:37:59;;;;;;;2.28;1.15;;;;;;;;;;5020456;28;20512;-81
2021/05/12 10:40:30;;;;;;;4.88;0.60;;;;;;;;;;5037588;28;20410;-81
2021/05/12 10:43:24;;;;;;;5.43;0.87;;;;;;;;;;5017060;28;20033;-81
2021/05/12 10:48:30;;;;;;;2.85;0.77;;;;;;;;;;5053422;28;20542;-81
2021/05/12 10:50:55;;;;;;;3.13;0.60;;;;;;;;;;5052360;28;20398;-82
2021/05/12 10:53:34;;;;;;;2.25;0.57;;;;;;;;;;5017524;28;20029;-82
2021/05/12 10:56:01;;;;;;;2.28;0.90;;;;;;;;;;5040482;28;20033;-82
2021/05/12 10:58:28;;;;;;;5.00;0.80;;;;;;;;;;5018488;28;20029;-81
2021/05/12 11:01:04;;;;;;;3.65;0.65;;;;;;;;;;5034036;28;20072;-86
2021/05/12 11:03:51;;;;;;;5.50;1.85;;;;;;;;;;5017173;28;20033;-83
2021/05/12 11:06:35;;;;;;;2.50;0.88;;;;;;;;;;5034259;28;20380;-84
2021/05/12 11:09:13;;;;;;;3.30;0.47;;;;;;;;;;5051866;28;20039;-84
2021/05/12 11:11:46;;;;;;;2.22;0.63;;;;;;;;;;5037805;28;20461;-83
2021/05/12 11:14:31;;;;;;;2.17;0.43;;;;;;;;;;5069615;28;20036;-85
2021/05/12 11:17:18;;;;;;;3.17;0.50;;;;;;;;;;5037327;28;20291;-85
2021/05/12 11:20:04;;;;;;;4.28;0.60;;;;;;;;;;5021212;28;20041;-86
2021/05/12 11:22:34;;;;;;;4.85;0.60;;;;;;;;;;5069728;28;20102;-84
2021/05/12 11:32:32;;;;;;;3.65;0.63;;;;;;;;;;5038427;28;20081;-85
2021/05/12 11:34:57;;;;;;;3.83;1.02;;;;;;;;;;5022880;28;20120;-84
2021/05/12 11:37:26;;;;;;;4.03;0.50;;;;;;;;;;5017282;28;20037;-83
2021/05/12 11:39:53;;;;;;;3.55;0.93;;;;;;;;;;5021685;28;20047;-84
2021/05/12 11:42:25;;;;;;;3.22;0.50;;;;;;;;;;5033652;28;20399;-83
2021/05/12 11:45:13;;;;;;;3.80;0.60;;;;;;;;;;5054439;28;20060;-85
2021/05/12 11:47:39;;;;;;;1.77;0.50;;;;;;;;;;5019483;28;20095;-87
2021/05/12 11:50:26;;;;;;;2.38;0.75;;;;;;;;;;5018233;28;20032;-87
2021/05/12 11:52:53;;;;;;;3.40;0.80;;;;;;;;;;5017192;28;20522;-84
2021/05/12 11:55:32;;;;;;;2.28;0.60;;;;;;;;;;5017038;28;20515;-83
2021/05/12 11:57:57;;;;;;;2.83;0.85;;;;;;;;;;5029328;28;20033;-83
2021/05/12 12:00:29;;;;;;;5.10;0.95;;;;;;;;;;5017144;28;20454;-84
2021/05/12 12:03:00;;;;;;;5.85;1.52;;;;;;;;;;5012274;28;20028;-85
2021/05/12 12:08:19;;;;;;;3.08;0.57;;;;;;;;;;5041951;28;20059;-86
2021/05/12 12:10:46;;;;;;;2.30;0.57;;;;;;;;;;5021096;28;20080;-82
2021/05/12 12:13:16;;;;;;;3.75;0.95;;;;;;;;;;5015908;28;20039;-82
2021/05/12 12:15:44;;;;;;;3.72;0.60;;;;;;;;;;5053109;28;20041;-82
2021/05/12 12:18:09;;;;;;;3.35;0.50;;;;;;;;;;5023028;28;20131;-82
2021/05/12 12:20:35;;;;;;;4.80;0.70;;;;;;;;;;5040287;28;20485;-82
2021/05/12 12:23:02;;;;;;;4.55;0.93;;;;;;;;;;5020154;28;20506;-82
2021/05/12 12:25:44;;;;;;;2.97;0.65;;;;;;;;;;5020193;28;20036;-82
2021/05/12 12:28:09;;;;;;;2.42;0.60;;;;;;;;;;5038610;28;20118;-82
2021/05/12 12:30:46;;;;;;;3.10;0.70;;;;;;;;;;5038125;28;20029;-85
2021/05/12 12:33:20;;;;;;;3.60;0.60;;;;;;;;;;5040434;28;20036;-82
2021/05/12 12:36:21;;;;;;;1.98;0.50;;;;;;;;;;5023546;28;20041;-82
2021/05/12 12:38:51;;;;;;;4.22;0.50;;;;;;;;;;4979904;28;20042;-82
2021/05/12 12:41:18;;;;;;;3.15;1.02;;;;;;;;;;5026300;28;20051;-83
2021/05/12 12:43:43;;;;;;;6.50;0.93;;;;;;;;;;4996177;23;20198;-84
2021/05/12 12:46:09;;;;;;;2.13;0.52;;;;;;;;;;4958240;28;20026;-84
2021/05/12 12:48:34;;;;;;;3.80;0.73;;;;;;;;;;4960583;28;20039;-84
2021/05/12 12:51:00;;;;;;;1.77;0.70;;;;;;;;;;4958208;28;20035;-84
2021/05/12 12:53:29;;;;;;;4.35;0.75;;;;;;;;;;4948918;28;20053;-84
2021/05/12 12:56:08;;;;;;;4.28;0.80;;;;;;;;;;4977381;28;20041;-84
2021/05/12 12:58:34;;;;;;;4.53;0.80;;;;;;;;;;4945008;28;20065;-84
2021/05/12 13:00:59;;;;;;;3.78;1.00;;;;;;;;;;4961222;28;20037;-85
2021/05/12 13:03:25;;;;;;;4.05;0.77;;;;;;;;;;4954921;28;20084;-85
2021/05/12 13:06:00;;;;;;;4.32;0.80;;;;;;;;;;4968354;28;20038;-84
2021/05/12 13:08:28;;;;;;;3.33;0.65;;;;;;;;;;4977963;28;20041;-84
2021/05/12 13:11:03;;;;;;;3.33;0.82;;;;;;;;;;4976575;28;20504;-84
2021/05/12 13:13:34;;;;;;;2.85;0.70;;;;;;;;;;4977413;28;20497;-83
2021/05/12 13:16:21;;;;;;;2.58;0.77;;;;;;;;;;4993392;28;20038;-85
2021/05/12 13:18:48;;;;;;;2.58;0.60;;;;;;;;;;4977010;28;20041;-85
2021/05/12 13:21:16;;;;;;;3.03;0.70;;;;;;;;;;4978097;28;20046;-88
2021/05/12 13:23:41;;;;;;;4.68;1.17;;;;;;;;;;4977451;28;20477;-87
2021/05/12 13:26:08;;;;;;;3.45;1.00;;;;;;;;;;4977202;28;20045;-87
2021/05/12 13:28:35;;;;;;;4.07;0.80;;;;;;;;;;4977295;28;20038;-87
2021/05/12 13:31:01;;;;;;;3.25;0.90;;;;;;;;;;4993908;28;20130;-86
2021/05/12 13:33:27;;;;;;;4.57;0.90;;;;;;;;;;4977181;28;20404;-87
2021/05/12 13:35:54;;;;;;;4.30;0.93;;;;;;;;;;4977488;28;20516;-87
2021/05/12 13:38:19;;;;;;;4.93;0.98;;;;;;;;;;4959469;28;20061;-85
2021/05/12 13:40:46;;;;;;;2.95;0.77;;;;;;;;;;4960795;28;20038;-86
2021/05/12 13:43:12;;;;;;;3.85;0.88;;;;;;;;;;4960812;28;20053;-86
2021/05/12 13:45:38;;;;;;;4.95;2.40;;;;;;;;;;4976744;28;20034;-86
2021/05/12 13:48:06;;;;;;;5.95;1.55;;;;;;;;;;4964618;28;20035;-86
2021/05/12 13:50:33;;;;;;;4.25;1.30;;;;;;;;;;4957873;28;20086;-86
2021/05/12 13:53:09;;;;;;;7.47;1.52;;;;;;;;;;4957441;28;20046;-87
2021/05/12 14:03:30;;;;;;;5.38;1.20;;;;;;;;;;4963741;28;20054;-87
2021/05/12 14:05:56;;;;;;;4.22;1.20;;;;;;;;;;4973848;28;20088;-84
2021/05/12 14:08:24;;;;;;;4.68;1.45;;;;;;;;;;4960718;28;20447;-87
2021/05/12 14:10:50;;;;;;;6.30;1.15;;;;;;;;;;4959847;28;20038;-87
2021/05/12 14:13:20;;;;;;;3.40;0.93;;;;;;;;;;4986749;28;20043;-86
2021/05/12 14:18:30;;;;;;;2.97;1.20;;;;;;;;;;4998236;28;20108;-85
2021/05/12 14:20:57;;;;;;;4.15;1.48;;;;;;;;;;4978900;28;20026;-85
2021/05/12 14:23:25;;;;;;;2.55;1.10;;;;;;;;;;5008566;28;20704;-87
2021/05/12 14:25:50;;;;;;;4.13;1.00;;;;;;;;;;4992438;28;20031;-87
2021/05/12 14:28:17;;;;;;;4.10;0.95;;;;;;;;;;5025369;28;20034;-86
2021/05/12 14:30:45;;;;;;;2.67;0.82;;;;;;;;;;4977688;28;20038;-86
2021/05/12 14:33:13;;;;;;;3.55;0.80;;;;;;;;;;4976110;28;20269;-85
2021/05/12 14:35:40;;;;;;;2.95;0.90;;;;;;;;;;4976275;28;20061;-86
2021/05/12 14:38:06;;;;;;;1.55;0.50;;;;;;;;;;4958803;28;20034;-85
2021/05/12 14:40:32;;;;;;;3.42;0.60;;;;;;;;;;4975759;28;20034;-85
2021/05/12 14:42:58;;;;;;;4.47;0.90;;;;;;;;;;4959120;28;20133;-85
2021/05/12 14:45:24;;;;;;;4.22;1.30;;;;;;;;;;4959447;28;20416;-84
2021/05/12 14:48:03;;;;;;;4.88;0.80;;;;;;;;;;4960000;28;20034;-85
2021/05/12 14:50:30;;;;;;;4.78;1.75;;;;;;;;;;4947505;28;20121;-85
2021/05/12 14:53:02;;;;;;;6.15;1.08;;;;;;;;;;4959582;28;20034;-86
2021/05/12 14:55:53;;;;;;;4.00;0.82;;;;;;;;;;4976531;28;20046;-85
2021/05/12 15:04:09;;;;;;;4.32;1.10;;;;;;;;;;4987893;28;20037;-86
2021/05/12 15:09:00;;;;;;;4.28;0.95;;;;;;;;;;4959170;28;20125;-85
2021/05/12 15:11:27;;;;;;;3.83;0.80;;;;;;;;;;4959087;28;20046;-85
2021/05/12 15:13:53;;;;;;;3.78;1.25;;;;;;;;;;4960143;28;20120;-86
2021/05/12 15:16:20;;;;;;;6.15;1.17;;;;;;;;;;4975460;28;20074;-85
2021/05/12 15:18:45;;;;;;;5.65;0.80;;;;;;;;;;4959913;28;20038;-85